createdAt,value
2018-12-18T00:00:26.130Z,20.90
2018-12-18T00:01:26.156Z,21.70
2018-12-18T00:02:26.178Z,20.90
2018-12-18T00:03:26.085Z,21.60
2018-12-18T00:04:26.194Z,21.30
2018-12-18T00:05:26.115Z,20.90
2018-12-18T00:06:26.062Z,21.10
2018-12-18T00:07:26.086Z,21.30
2018-12-18T00:08:26.063Z,21.50
2018-12-18T00:09:26.028Z,21.10
2018-12-18T00:10:26.025Z,21.70
2018-12-18T00:11:25.997Z,20.70
2018-12-18T00:12:26.006Z,20.80
2018-12-18T00:13:26.021Z,20.60
2018-12-18T00:14:25.964Z,20.60
2018-12-18T00:15:25.954Z,21.60
2018-12-18T00:16:25.939Z,22.10
2018-12-18T00:17:25.941Z,20.80
2018-12-18T00:18:25.945Z,21.40
2018-12-18T00:19:25.927Z,21.00
2018-12-18T00:20:25.894Z,21.10
2018-12-18T00:21:25.927Z,21.60
2018-12-18T00:22:25.880Z,21.20
2018-12-18T00:23:25.888Z,21.40
2018-12-18T00:24:25.854Z,21.10
2018-12-18T00:25:25.859Z,21.30
2018-12-18T00:26:25.830Z,21.20
2018-12-18T00:27:25.825Z,21.90
2018-12-18T00:28:25.818Z,21.60
2018-12-18T00:29:25.801Z,20.70
2018-12-18T00:30:25.789Z,20.40
2018-12-18T00:31:25.790Z,21.00
2018-12-18T00:32:25.767Z,20.70
2018-12-18T00:33:25.774Z,21.00
2018-12-18T00:34:25.770Z,20.30
2018-12-18T00:35:25.735Z,20.40
2018-12-18T00:36:25.724Z,21.00
2018-12-18T00:37:25.718Z,20.50
2018-12-18T00:38:25.727Z,20.80
2018-12-18T00:39:25.700Z,20.20
2018-12-18T00:40:25.678Z,21.50
2018-12-18T00:41:25.751Z,21.70
2018-12-18T00:42:25.681Z,21.10
2018-12-18T00:43:25.725Z,21.30
2018-12-18T00:44:25.639Z,20.70
2018-12-18T00:45:25.639Z,20.40
2018-12-18T00:46:25.639Z,21.30
2018-12-18T00:47:25.611Z,20.50
2018-12-18T00:48:25.597Z,21.20
2018-12-18T00:49:25.577Z,20.30
2018-12-18T00:50:25.573Z,20.10
2018-12-18T00:51:25.559Z,20.60
2018-12-18T00:52:25.546Z,20.60
2018-12-18T00:53:25.561Z,20.00
2018-12-18T00:54:25.528Z,20.20
2018-12-18T00:55:25.511Z,19.90
2018-12-18T00:56:25.503Z,20.20
2018-12-18T00:57:25.517Z,19.60
2018-12-18T00:58:25.492Z,20.00
2018-12-18T00:59:25.469Z,20.80
2018-12-18T01:00:25.487Z,20.90
2018-12-18T01:01:25.447Z,21.60
2018-12-18T01:02:25.468Z,20.70
2018-12-18T01:03:25.440Z,20.60
2018-12-18T01:04:25.411Z,19.90
2018-12-18T01:05:25.403Z,19.60
2018-12-18T01:06:25.411Z,20.00
2018-12-18T01:07:25.385Z,20.60
2018-12-18T01:08:25.386Z,20.60
2018-12-18T01:09:25.357Z,20.70
2018-12-18T01:10:25.347Z,20.70
2018-12-18T01:11:25.343Z,20.20
2018-12-18T01:12:25.325Z,21.20
2018-12-18T01:13:25.362Z,21.10
2018-12-18T01:14:25.303Z,20.70
2018-12-18T01:15:25.294Z,20.90
2018-12-18T01:16:25.292Z,20.60
2018-12-18T01:17:25.283Z,19.90
2018-12-18T01:18:25.314Z,20.50
2018-12-18T01:19:25.258Z,21.20
2018-12-18T01:20:25.241Z,21.00
2018-12-18T01:21:25.243Z,20.70
2018-12-18T01:22:25.219Z,20.70
2018-12-18T01:23:25.242Z,19.50
2018-12-18T01:24:25.191Z,19.60
2018-12-18T01:25:25.179Z,19.30
2018-12-18T01:26:25.174Z,20.10
2018-12-18T01:27:25.181Z,20.50
2018-12-18T01:28:25.185Z,19.80
2018-12-18T01:29:25.148Z,19.90
2018-12-18T01:30:25.135Z,20.20
2018-12-18T01:31:25.142Z,19.90
2018-12-18T01:32:25.113Z,20.00
2018-12-18T01:33:25.106Z,19.00
2018-12-18T01:34:25.082Z,19.70
2018-12-18T01:35:25.086Z,20.60
2018-12-18T01:36:25.063Z,20.00
2018-12-18T01:37:25.053Z,20.10
2018-12-18T01:38:25.103Z,20.10
2018-12-18T01:39:25.033Z,19.90
2018-12-18T01:40:25.039Z,19.50
2018-12-18T01:41:25.025Z,19.40
2018-12-18T01:42:24.993Z,20.10
2018-12-18T01:43:25.035Z,19.80
2018-12-18T01:44:24.990Z,19.90
2018-12-18T01:45:24.988Z,20.20
2018-12-18T01:46:24.950Z,20.40
2018-12-18T01:47:24.939Z,20.30
2018-12-18T01:48:24.928Z,20.00
2018-12-18T01:49:24.939Z,19.70
2018-12-18T01:50:24.904Z,19.30
2018-12-18T01:51:24.908Z,19.80
2018-12-18T01:52:24.892Z,18.80
2018-12-18T01:53:24.872Z,19.30
2018-12-18T01:54:24.871Z,18.70
2018-12-18T01:55:24.850Z,19.40
2018-12-18T01:56:24.842Z,18.60
2018-12-18T01:57:24.827Z,20.40
2018-12-18T01:58:24.824Z,20.70
2018-12-18T01:59:24.837Z,20.60
2018-12-18T02:00:24.801Z,21.30
2018-12-18T02:01:24.796Z,21.10
2018-12-18T02:02:24.772Z,21.10
2018-12-18T02:03:24.762Z,21.70
2018-12-18T02:04:24.770Z,22.00
2018-12-18T02:05:24.751Z,22.70
2018-12-18T02:06:24.737Z,23.90
2018-12-18T02:07:24.721Z,22.70
2018-12-18T02:08:24.707Z,23.50
2018-12-18T02:09:24.716Z,22.20
2018-12-18T02:10:24.696Z,23.00
2018-12-18T02:11:24.674Z,23.70
2018-12-18T02:12:24.675Z,23.60
2018-12-18T02:13:24.657Z,23.60
2018-12-18T02:14:24.669Z,24.10
2018-12-18T02:15:24.639Z,24.80
2018-12-18T02:16:24.632Z,23.10
2018-12-18T02:17:24.608Z,24.00
2018-12-18T02:18:24.602Z,24.60
2018-12-18T02:19:24.600Z,24.20
2018-12-18T02:20:24.579Z,24.70
2018-12-18T02:21:24.572Z,24.20
2018-12-18T02:22:24.553Z,24.90
2018-12-18T02:23:24.543Z,24.40
2018-12-18T02:24:24.556Z,24.50
2018-12-18T02:25:24.524Z,23.30
2018-12-18T02:26:24.520Z,22.90
2018-12-18T02:27:24.522Z,23.30
2018-12-18T02:28:24.491Z,22.40
2018-12-18T02:29:24.487Z,22.90
2018-12-18T02:30:24.493Z,22.80
2018-12-18T02:31:24.466Z,22.10
2018-12-18T02:32:24.453Z,22.70
2018-12-18T02:33:24.446Z,21.30
2018-12-18T02:34:24.451Z,21.50
2018-12-18T02:35:24.421Z,21.60
2018-12-18T02:36:24.400Z,21.40
2018-12-18T02:37:24.400Z,22.00
2018-12-18T02:38:24.387Z,20.80
2018-12-18T02:39:24.384Z,20.30
2018-12-18T02:40:24.359Z,21.00
2018-12-18T02:41:24.358Z,20.90
2018-12-18T02:42:24.358Z,19.10
2018-12-18T02:43:24.328Z,19.70
2018-12-18T02:44:24.338Z,20.10
2018-12-18T02:45:24.309Z,20.20
2018-12-18T02:46:24.290Z,20.60
2018-12-18T02:47:24.285Z,20.60
2018-12-18T02:48:24.290Z,20.50
2018-12-18T02:49:24.282Z,20.90
2018-12-18T02:50:24.262Z,20.40
2018-12-18T02:51:24.238Z,21.00
2018-12-18T02:52:24.231Z,20.00
2018-12-18T02:53:24.214Z,19.80
2018-12-18T02:54:24.217Z,20.70
2018-12-18T02:55:24.205Z,20.60
2018-12-18T02:56:24.182Z,19.70
2018-12-18T02:57:24.172Z,20.90
2018-12-18T02:58:24.157Z,21.20
2018-12-18T02:59:24.161Z,21.10
2018-12-18T03:00:24.151Z,21.10
2018-12-18T03:01:24.137Z,21.40
2018-12-18T03:02:24.123Z,21.90
2018-12-18T03:03:24.104Z,22.80
2018-12-18T03:04:24.103Z,21.20
2018-12-18T03:05:24.083Z,24.20
2018-12-18T03:06:24.074Z,25.10
2018-12-18T03:07:24.075Z,25.20
2018-12-18T03:08:24.063Z,26.70
2018-12-18T03:09:24.062Z,27.30
2018-12-18T03:10:24.034Z,28.20
2018-12-18T03:11:24.034Z,28.60
2018-12-18T03:12:24.031Z,30.40
2018-12-18T03:13:24.002Z,30.90
2018-12-18T03:14:24.000Z,32.40
2018-12-18T03:15:24.002Z,31.70
2018-12-18T03:16:23.987Z,32.80
2018-12-18T03:17:23.958Z,33.10
2018-12-18T03:18:23.959Z,34.70
2018-12-18T03:19:23.947Z,34.50
2018-12-18T03:20:23.942Z,35.20
2018-12-18T03:21:23.911Z,36.40
2018-12-18T03:22:23.909Z,35.20
2018-12-18T03:23:23.897Z,35.60
2018-12-18T03:24:23.893Z,35.20
2018-12-18T03:25:23.867Z,36.40
2018-12-18T03:26:23.930Z,35.90
2018-12-18T03:27:23.840Z,36.40
2018-12-18T03:28:23.833Z,37.00
2018-12-18T03:29:23.840Z,37.30
2018-12-18T03:30:23.842Z,36.10
2018-12-18T03:31:23.804Z,37.10
2018-12-18T03:32:23.827Z,37.50
2018-12-18T03:33:23.775Z,36.60
2018-12-18T03:34:28.290Z,37.20
2018-12-18T03:35:23.752Z,38.00
2018-12-18T03:36:23.769Z,37.00
2018-12-18T03:37:23.757Z,37.20
2018-12-18T03:38:23.730Z,37.90
2018-12-18T03:39:23.743Z,36.30
2018-12-18T03:40:23.703Z,36.60
2018-12-18T03:41:23.694Z,36.10
2018-12-18T03:42:23.685Z,35.80
2018-12-18T03:43:23.685Z,36.70
2018-12-18T03:44:23.674Z,35.70
2018-12-18T03:45:23.651Z,36.50
2018-12-18T03:46:23.633Z,37.00
2018-12-18T03:47:23.623Z,36.20
2018-12-18T03:48:23.623Z,35.70
2018-12-18T03:49:23.609Z,35.60
2018-12-18T03:50:23.648Z,36.10
2018-12-18T03:51:23.578Z,37.10
2018-12-18T03:52:23.579Z,35.80
2018-12-18T03:53:23.556Z,35.30
2018-12-18T03:54:23.556Z,34.80
2018-12-18T03:55:23.556Z,34.40
2018-12-18T03:56:23.564Z,35.50
2018-12-18T03:57:23.511Z,35.50
2018-12-18T03:58:23.511Z,35.60
2018-12-18T03:59:23.503Z,35.80
2018-12-18T04:00:23.497Z,36.50
2018-12-18T04:01:23.492Z,36.60
2018-12-18T04:02:23.463Z,36.50
2018-12-18T04:03:23.451Z,35.60
2018-12-18T04:04:23.434Z,36.00
2018-12-18T04:05:23.436Z,37.70
2018-12-18T04:06:23.421Z,37.20
2018-12-18T04:07:23.421Z,37.70
2018-12-18T04:08:23.386Z,38.30
2018-12-18T04:09:23.381Z,38.80
2018-12-18T04:10:23.399Z,39.10
2018-12-18T04:11:23.377Z,38.20
2018-12-18T04:12:23.362Z,39.00
2018-12-18T04:13:23.349Z,38.40
2018-12-18T04:14:23.334Z,40.10
2018-12-18T04:15:23.328Z,40.30
2018-12-18T04:16:23.321Z,39.50
2018-12-18T04:17:23.302Z,39.30
2018-12-18T04:18:23.332Z,39.60
2018-12-18T04:19:23.267Z,39.90
2018-12-18T04:20:23.268Z,40.10
2018-12-18T04:21:23.245Z,39.50
2018-12-18T04:22:23.247Z,39.30
2018-12-18T04:23:23.244Z,40.00
2018-12-18T04:24:23.235Z,40.20
2018-12-18T04:25:23.275Z,40.00
2018-12-18T04:26:23.197Z,40.10
2018-12-18T04:27:23.180Z,40.70
2018-12-18T04:28:23.181Z,40.80
2018-12-18T04:29:23.180Z,38.70
2018-12-18T04:30:23.161Z,39.50
2018-12-18T04:31:23.134Z,39.30
2018-12-18T04:32:23.121Z,37.60
2018-12-18T04:33:23.132Z,37.80
2018-12-18T04:34:23.119Z,40.30
2018-12-18T04:35:23.213Z,39.30
2018-12-18T04:36:23.081Z,39.70
2018-12-18T04:37:23.069Z,40.00
2018-12-18T04:38:23.072Z,39.90
2018-12-18T04:39:23.058Z,41.50
2018-12-18T04:40:23.052Z,40.00
2018-12-18T04:41:23.055Z,42.00
2018-12-18T04:42:23.016Z,42.00
2018-12-18T04:43:23.007Z,41.40
2018-12-18T04:44:22.999Z,41.60
2018-12-18T04:45:23.018Z,41.70
2018-12-18T04:46:23.005Z,41.00
2018-12-18T04:47:22.957Z,41.20
2018-12-18T04:48:22.945Z,41.80
2018-12-18T04:49:22.944Z,41.40
2018-12-18T04:50:22.945Z,41.20
2018-12-18T04:51:22.929Z,41.50
2018-12-18T04:52:22.924Z,41.40
2018-12-18T04:53:22.945Z,41.30
2018-12-18T04:54:22.887Z,40.70
2018-12-18T04:55:22.885Z,41.30
2018-12-18T04:56:22.877Z,40.80
2018-12-18T04:57:22.870Z,41.70
2018-12-18T04:58:22.868Z,40.10
2018-12-18T04:59:22.868Z,40.00
2018-12-18T05:00:22.834Z,40.70
2018-12-18T05:01:22.815Z,39.90
2018-12-18T05:02:22.813Z,40.80
2018-12-18T05:03:22.806Z,40.50
2018-12-18T05:04:22.774Z,40.00
2018-12-18T05:05:22.767Z,41.10
2018-12-18T05:06:22.763Z,39.90
2018-12-18T05:07:22.746Z,40.90
2018-12-18T05:08:22.731Z,40.40
2018-12-18T05:09:22.730Z,40.10
2018-12-18T05:10:22.709Z,40.60
2018-12-18T05:11:22.722Z,39.30
2018-12-18T05:12:22.684Z,41.20
2018-12-18T05:13:22.670Z,40.40
2018-12-18T05:14:22.666Z,38.90
2018-12-18T05:15:22.658Z,39.80
2018-12-18T05:16:22.972Z,39.90
2018-12-18T05:17:22.630Z,39.50
2018-12-18T05:18:22.617Z,39.20
2018-12-18T05:19:22.609Z,39.30
2018-12-18T05:20:22.593Z,40.30
2018-12-18T05:21:22.598Z,40.60
2018-12-18T05:22:22.573Z,40.00
2018-12-18T05:23:22.591Z,40.60
2018-12-18T05:24:22.554Z,41.60
2018-12-18T05:25:22.557Z,40.60
2018-12-18T05:26:22.545Z,42.20
2018-12-18T05:27:22.541Z,41.60
2018-12-18T05:28:22.525Z,41.40
2018-12-18T05:29:22.504Z,43.70
2018-12-18T05:30:22.493Z,41.80
2018-12-18T05:31:22.484Z,42.60
2018-12-18T05:32:22.463Z,44.00
2018-12-18T05:33:22.487Z,44.30
2018-12-18T05:34:22.440Z,44.10
2018-12-18T05:35:22.430Z,43.70
2018-12-18T05:36:22.433Z,45.10
2018-12-18T05:37:22.407Z,44.80
2018-12-18T05:38:22.440Z,45.40
2018-12-18T05:39:22.398Z,43.80
2018-12-18T05:40:22.407Z,42.20
2018-12-18T05:41:22.400Z,43.60
2018-12-18T05:42:22.364Z,42.70
2018-12-18T05:43:22.344Z,43.30
2018-12-18T05:44:22.332Z,42.30
2018-12-18T05:45:22.334Z,42.90
2018-12-18T05:46:22.336Z,43.00
2018-12-18T05:47:22.299Z,43.90
2018-12-18T05:48:22.312Z,43.70
2018-12-18T05:49:22.273Z,43.40
2018-12-18T05:50:22.265Z,42.20
2018-12-18T05:51:22.277Z,39.90
2018-12-18T05:52:22.243Z,40.70
2018-12-18T05:53:22.302Z,40.00
2018-12-18T05:54:22.222Z,40.10
2018-12-18T05:55:22.209Z,40.30
2018-12-18T05:56:22.223Z,38.40
2018-12-18T05:57:22.210Z,39.60
2018-12-18T05:58:22.177Z,39.20
2018-12-18T05:59:22.174Z,39.70
2018-12-18T06:00:22.174Z,39.00
2018-12-18T06:01:22.159Z,38.10
2018-12-18T06:02:22.145Z,38.30
2018-12-18T06:03:22.150Z,38.20
2018-12-18T06:04:22.117Z,38.10
2018-12-18T06:05:22.120Z,39.20
2018-12-18T06:06:22.129Z,37.10
2018-12-18T06:07:22.081Z,37.20
2018-12-18T06:08:22.085Z,37.10
2018-12-18T06:09:22.053Z,37.00
2018-12-18T06:10:22.051Z,37.40
2018-12-18T06:11:22.063Z,36.00
2018-12-18T06:12:22.022Z,36.20
2018-12-18T06:13:22.018Z,35.80
2018-12-18T06:14:22.003Z,34.70
2018-12-18T06:15:21.989Z,35.50
2018-12-18T06:16:22.024Z,35.40
2018-12-18T06:17:21.967Z,34.30
2018-12-18T06:18:21.951Z,33.70
2018-12-18T06:19:21.949Z,34.90
2018-12-18T06:20:21.959Z,34.30
2018-12-18T06:21:21.963Z,34.70
2018-12-18T06:22:21.958Z,33.90
2018-12-18T06:23:21.936Z,34.90
2018-12-18T06:24:21.886Z,33.70
2018-12-18T06:25:21.881Z,33.80
2018-12-18T06:26:21.884Z,34.20
2018-12-18T06:27:21.861Z,34.50
2018-12-18T06:28:21.864Z,33.90
2018-12-18T06:29:21.840Z,33.90
2018-12-18T06:30:21.820Z,34.30
2018-12-18T06:31:21.832Z,33.90
2018-12-18T06:32:21.809Z,32.60
2018-12-18T06:33:21.788Z,33.50
2018-12-18T06:34:21.775Z,34.00
2018-12-18T06:35:21.766Z,33.90
2018-12-18T06:36:21.793Z,32.60
2018-12-18T06:37:21.747Z,31.40
2018-12-18T06:38:21.763Z,32.50
2018-12-18T06:39:21.760Z,32.40
2018-12-18T06:40:21.727Z,32.30
2018-12-18T06:41:21.992Z,32.30
2018-12-18T06:42:21.688Z,31.50
2018-12-18T06:43:21.686Z,31.80
2018-12-18T06:44:21.701Z,32.40
2018-12-18T06:45:21.680Z,32.50
2018-12-18T06:46:21.663Z,34.00
2018-12-18T06:47:21.635Z,35.90
2018-12-18T06:48:21.629Z,35.80
2018-12-18T06:49:21.623Z,35.90
2018-12-18T06:50:21.599Z,36.70
2018-12-18T06:51:21.601Z,37.30
2018-12-18T06:52:21.589Z,35.30
2018-12-18T06:53:21.566Z,36.60
2018-12-18T06:54:22.437Z,36.00
2018-12-18T06:55:21.550Z,35.90
2018-12-18T06:56:21.556Z,35.70
2018-12-18T06:57:21.545Z,36.30
2018-12-18T06:58:21.513Z,37.20
2018-12-18T06:59:21.503Z,37.00
2018-12-18T07:00:21.494Z,37.20
2018-12-18T07:01:21.502Z,37.10
2018-12-18T07:02:21.491Z,37.30
2018-12-18T07:03:21.485Z,37.50
2018-12-18T07:04:21.444Z,37.40
2018-12-18T07:05:21.455Z,38.80
2018-12-18T07:06:21.474Z,38.80
2018-12-18T07:07:21.433Z,38.40
2018-12-18T07:08:21.402Z,38.90
2018-12-18T07:09:21.390Z,37.90
2018-12-18T07:10:21.382Z,38.10
2018-12-18T07:11:21.372Z,37.80
2018-12-18T07:12:21.379Z,37.00
2018-12-18T07:13:21.346Z,39.30
2018-12-18T07:14:21.350Z,38.90
2018-12-18T07:15:21.339Z,38.90
2018-12-18T07:16:21.313Z,36.90
2018-12-18T07:17:21.315Z,37.40
2018-12-18T07:18:21.304Z,37.30
2018-12-18T07:19:21.280Z,36.50
2018-12-18T07:20:21.276Z,36.10
2018-12-18T07:21:21.257Z,36.50
2018-12-18T07:22:21.261Z,35.00
2018-12-18T07:23:21.258Z,35.50
2018-12-18T07:24:21.239Z,34.00
2018-12-18T07:25:21.214Z,33.70
2018-12-18T07:26:21.236Z,34.10
2018-12-18T07:27:21.202Z,32.90
2018-12-18T07:28:21.198Z,31.60
2018-12-18T07:29:21.180Z,32.40
2018-12-18T07:30:21.159Z,31.90
2018-12-18T07:31:21.147Z,32.10
2018-12-18T07:32:21.157Z,31.40
2018-12-18T07:33:21.126Z,31.40
2018-12-18T07:34:21.127Z,31.10
2018-12-18T07:35:23.443Z,30.90
2018-12-18T07:36:21.094Z,30.60
2018-12-18T07:37:21.092Z,29.00
2018-12-18T07:38:21.079Z,27.90
2018-12-18T07:39:21.063Z,27.60
2018-12-18T07:40:21.056Z,28.30
2018-12-18T07:41:21.053Z,26.40
2018-12-18T07:42:21.039Z,25.60
2018-12-18T07:43:21.020Z,25.80
2018-12-18T07:44:21.011Z,24.80
2018-12-18T07:45:20.991Z,24.70
2018-12-18T07:46:20.998Z,24.60
2018-12-18T07:47:21.940Z,23.60
2018-12-18T07:48:20.995Z,24.10
2018-12-18T07:49:20.957Z,23.70
2018-12-18T07:50:20.952Z,23.70
2018-12-18T07:51:20.928Z,24.30
2018-12-18T07:52:20.935Z,24.00
2018-12-18T07:53:20.903Z,24.10
2018-12-18T07:54:20.903Z,23.20
2018-12-18T07:55:20.887Z,23.10
2018-12-18T07:56:20.874Z,23.50
2018-12-18T07:57:20.878Z,23.40
2018-12-18T07:58:20.885Z,23.60
2018-12-18T07:59:20.838Z,22.90
2018-12-18T08:00:20.850Z,23.00
2018-12-18T08:01:20.818Z,22.90
2018-12-18T08:02:20.822Z,22.40
2018-12-18T08:03:20.801Z,23.70
2018-12-18T08:04:21.233Z,23.10
2018-12-18T08:05:20.796Z,24.40
2018-12-18T08:06:20.784Z,23.10
2018-12-18T08:07:20.766Z,22.90
2018-12-18T08:08:20.741Z,22.20
2018-12-18T08:09:20.736Z,23.10
2018-12-18T08:10:20.727Z,22.70
2018-12-18T08:11:20.739Z,23.20
2018-12-18T08:12:20.721Z,22.40
2018-12-18T08:13:20.701Z,22.40
2018-12-18T08:14:20.682Z,21.80
2018-12-18T08:15:20.685Z,21.80
2018-12-18T08:16:20.663Z,21.80
2018-12-18T08:17:20.677Z,22.40
2018-12-18T08:18:20.632Z,21.70
2018-12-18T08:19:20.626Z,20.30
2018-12-18T08:20:20.611Z,19.10
2018-12-18T08:21:20.618Z,18.00
2018-12-18T08:22:21.943Z,16.90
2018-12-18T08:23:20.586Z,16.20
2018-12-18T08:24:20.563Z,16.10
2018-12-18T08:25:20.558Z,16.30
2018-12-18T08:26:20.552Z,16.40
2018-12-18T08:27:20.593Z,16.70
2018-12-18T08:28:20.537Z,16.70
2018-12-18T08:29:20.510Z,16.70
2018-12-18T08:30:20.509Z,15.80
2018-12-18T08:31:20.506Z,16.60
2018-12-18T08:32:20.506Z,17.30
2018-12-18T08:33:20.468Z,16.70
2018-12-18T08:34:20.484Z,17.20
2018-12-18T08:35:20.443Z,17.50
2018-12-18T08:36:20.444Z,18.30
2018-12-18T08:37:20.444Z,18.30
2018-12-18T08:38:20.416Z,18.40
2018-12-18T08:39:20.408Z,18.00
2018-12-18T08:40:20.392Z,18.10
2018-12-18T08:41:20.465Z,18.60
2018-12-18T08:42:20.390Z,18.90
2018-12-18T08:43:20.376Z,17.60
2018-12-18T08:44:20.342Z,17.90
2018-12-18T08:45:20.342Z,17.50
2018-12-18T08:46:20.333Z,17.00
2018-12-18T08:47:20.339Z,16.90
2018-12-18T08:48:20.304Z,16.50
2018-12-18T08:49:20.302Z,16.40
2018-12-18T08:50:20.277Z,16.70
2018-12-18T08:51:20.282Z,16.50
2018-12-18T08:52:20.250Z,16.40
2018-12-18T08:53:20.254Z,16.40
2018-12-18T08:54:20.243Z,15.10
2018-12-18T08:55:20.216Z,15.20
2018-12-18T08:56:20.212Z,14.10
2018-12-18T08:57:20.219Z,13.20
2018-12-18T08:58:20.202Z,13.90
2018-12-18T08:59:20.175Z,14.00
2018-12-18T09:00:20.199Z,14.00
2018-12-18T09:01:20.172Z,14.30
2018-12-18T09:02:20.159Z,13.50
2018-12-18T09:03:20.158Z,12.90
2018-12-18T09:04:20.120Z,12.60
2018-12-18T09:05:20.110Z,13.00
2018-12-18T09:06:20.096Z,13.00
2018-12-18T09:07:20.098Z,12.60
2018-12-18T09:08:20.095Z,12.60
2018-12-18T09:09:20.070Z,13.20
2018-12-18T09:10:20.057Z,12.70
2018-12-18T09:11:20.047Z,12.70
2018-12-18T09:12:20.031Z,12.30
2018-12-18T09:13:20.038Z,13.00
2018-12-18T09:14:20.018Z,12.30
2018-12-18T09:15:20.002Z,11.30
2018-12-18T09:16:19.997Z,11.70
2018-12-18T09:17:19.995Z,11.40
2018-12-18T09:18:20.006Z,10.70
2018-12-18T09:19:19.951Z,9.80
2018-12-18T09:20:19.956Z,10.30
2018-12-18T09:21:19.931Z,10.10
2018-12-18T09:22:19.923Z,9.60
2018-12-18T09:23:19.918Z,10.10
2018-12-18T09:24:19.899Z,9.50
2018-12-18T09:25:19.891Z,9.50
2018-12-18T09:26:19.879Z,9.10
2018-12-18T09:27:19.863Z,9.00
2018-12-18T09:28:19.870Z,9.10
2018-12-18T09:29:19.843Z,8.90
2018-12-18T09:30:19.837Z,8.70
2018-12-18T09:31:19.830Z,8.60
2018-12-18T09:32:19.848Z,8.70
2018-12-18T09:33:19.814Z,9.50
2018-12-18T09:34:19.787Z,8.90
2018-12-18T09:35:19.792Z,8.70
2018-12-18T09:36:19.773Z,8.70
2018-12-18T09:37:19.751Z,8.90
2018-12-18T09:38:19.783Z,9.00
2018-12-18T09:39:19.733Z,8.80
2018-12-18T09:40:19.745Z,9.10
2018-12-18T09:41:19.707Z,9.10
2018-12-18T09:42:19.696Z,9.50
2018-12-18T09:43:19.720Z,9.20
2018-12-18T09:44:19.680Z,9.40
2018-12-18T09:45:19.661Z,9.40
2018-12-18T09:46:19.656Z,9.40
2018-12-18T09:47:19.644Z,9.60
2018-12-18T09:48:19.646Z,9.60
2018-12-18T09:49:19.623Z,9.90
2018-12-18T09:50:19.625Z,8.90
2018-12-18T09:51:19.597Z,9.20
2018-12-18T09:52:19.590Z,8.60
2018-12-18T09:53:19.596Z,9.50
2018-12-18T09:54:19.569Z,9.70
2018-12-18T09:55:19.554Z,9.20
2018-12-18T09:56:19.594Z,8.90
2018-12-18T09:57:19.533Z,9.40
2018-12-18T09:58:19.612Z,9.20
2018-12-18T09:59:19.510Z,9.50
2018-12-18T10:00:19.495Z,9.10
2018-12-18T10:01:19.486Z,9.00
2018-12-18T10:02:19.476Z,9.20
2018-12-18T10:03:19.483Z,8.70
2018-12-18T10:04:19.450Z,8.80
2018-12-18T10:05:19.449Z,8.80
2018-12-18T10:06:19.432Z,8.40
2018-12-18T10:07:19.433Z,8.60
2018-12-18T10:08:19.404Z,9.10
2018-12-18T10:09:19.413Z,8.70
2018-12-18T10:10:19.396Z,9.00
2018-12-18T10:11:19.386Z,9.00
2018-12-18T10:12:19.392Z,8.90
2018-12-18T10:13:19.348Z,9.40
2018-12-18T10:14:19.348Z,9.20
2018-12-18T10:15:19.327Z,9.20
2018-12-18T10:16:19.315Z,9.20
2018-12-18T10:17:19.318Z,9.60
2018-12-18T10:18:19.370Z,9.50
2018-12-18T10:19:19.294Z,9.20
2018-12-18T10:20:19.278Z,8.30
2018-12-18T10:21:19.260Z,7.70
2018-12-18T10:22:19.247Z,7.50
2018-12-18T10:23:19.237Z,8.80
2018-12-18T10:24:19.260Z,8.60
2018-12-18T10:25:19.212Z,8.20
2018-12-18T10:26:19.203Z,8.00
2018-12-18T10:27:19.198Z,8.70
2018-12-18T10:28:19.179Z,8.60
2018-12-18T10:29:19.184Z,9.00
2018-12-18T10:30:19.163Z,8.30
2018-12-18T10:31:19.149Z,9.30
2018-12-18T10:32:19.135Z,8.70
2018-12-18T10:33:19.125Z,8.70
2018-12-18T10:34:19.127Z,9.90
2018-12-18T10:35:19.110Z,9.70
2018-12-18T10:36:19.088Z,10.60
2018-12-18T10:37:19.077Z,10.40
2018-12-18T10:38:19.068Z,10.40
2018-12-18T10:39:19.074Z,10.60
2018-12-18T10:40:19.058Z,11.10
2018-12-18T10:41:19.033Z,10.90
2018-12-18T10:42:19.038Z,11.10
2018-12-18T10:43:19.011Z,11.70
2018-12-18T10:44:19.038Z,11.00
2018-12-18T10:45:18.993Z,10.70
2018-12-18T10:46:18.990Z,10.70
2018-12-18T10:47:18.967Z,10.10
2018-12-18T10:48:18.965Z,10.10
2018-12-18T10:49:18.945Z,10.30
2018-12-18T10:50:18.951Z,10.20
2018-12-18T10:51:18.934Z,10.80
2018-12-18T10:52:18.937Z,10.20
2018-12-18T10:53:18.903Z,9.90
2018-12-18T10:54:18.887Z,10.00
2018-12-18T10:55:18.908Z,9.20
2018-12-18T10:56:18.872Z,8.90
2018-12-18T10:57:18.861Z,9.00
2018-12-18T10:58:23.955Z,9.30
2018-12-18T10:59:19.835Z,9.40
2018-12-18T11:00:18.835Z,9.40
2018-12-18T11:01:18.871Z,9.10
2018-12-18T11:02:18.821Z,9.60
2018-12-18T11:03:18.798Z,10.10
2018-12-18T11:04:18.783Z,9.90
2018-12-18T11:05:18.779Z,9.70
2018-12-18T11:06:18.755Z,8.90
2018-12-18T11:07:18.746Z,9.20
2018-12-18T11:08:18.738Z,9.20
2018-12-18T11:09:18.734Z,9.50
2018-12-18T11:10:18.743Z,9.30
2018-12-18T11:11:18.703Z,9.60
2018-12-18T11:12:18.697Z,8.90
2018-12-18T11:13:18.681Z,9.70
2018-12-18T11:14:18.683Z,9.50
2018-12-18T11:15:18.679Z,9.50
2018-12-18T11:16:19.446Z,9.20
2018-12-18T11:17:18.638Z,9.20
2018-12-18T11:18:18.623Z,9.50
2018-12-18T11:19:18.617Z,8.90
2018-12-18T11:20:18.625Z,9.00
2018-12-18T11:21:18.596Z,9.30
2018-12-18T11:22:18.583Z,9.60
2018-12-18T11:23:19.796Z,11.60
2018-12-18T11:24:18.558Z,10.10
2018-12-18T11:25:18.543Z,9.60
2018-12-18T11:26:18.562Z,9.20
2018-12-18T11:27:18.531Z,9.50
2018-12-18T11:28:18.533Z,9.30
2018-12-18T11:29:18.500Z,9.60
2018-12-18T11:30:18.488Z,9.90
2018-12-18T11:31:18.488Z,9.60
2018-12-18T11:32:18.469Z,8.90
2018-12-18T11:33:18.486Z,7.90
2018-12-18T11:34:18.469Z,8.40
2018-12-18T11:35:18.433Z,7.90
2018-12-18T11:36:18.445Z,7.20
2018-12-18T11:37:18.421Z,7.10
2018-12-18T11:38:18.402Z,7.20
2018-12-18T11:39:18.401Z,7.20
2018-12-18T11:40:18.415Z,6.60
2018-12-18T11:41:18.379Z,6.50
2018-12-18T11:42:18.362Z,6.20
2018-12-18T11:43:18.362Z,6.10
2018-12-18T11:44:18.442Z,6.40
2018-12-18T11:45:18.335Z,7.20
2018-12-18T11:46:18.449Z,7.20
2018-12-18T11:47:18.312Z,7.10
2018-12-18T11:48:18.295Z,6.60
2018-12-18T11:49:18.316Z,7.20
2018-12-18T11:50:18.272Z,7.40
2018-12-18T11:51:18.277Z,7.10
2018-12-18T11:52:18.253Z,7.80
2018-12-18T11:53:18.233Z,7.40
2018-12-18T11:54:18.238Z,7.70
2018-12-18T11:55:18.226Z,6.90
2018-12-18T11:56:18.227Z,6.90
2018-12-18T11:57:18.186Z,6.80
2018-12-18T11:58:18.182Z,6.50
2018-12-18T11:59:18.197Z,6.20
2018-12-18T12:00:18.178Z,6.50
2018-12-18T12:01:18.157Z,6.80
2018-12-18T12:02:18.142Z,6.60
2018-12-18T12:03:18.119Z,6.70
2018-12-18T12:04:18.109Z,7.20
2018-12-18T12:05:18.098Z,6.50
2018-12-18T12:06:22.982Z,6.30
2018-12-18T12:07:19.072Z,7.10
2018-12-18T12:08:18.077Z,5.80
2018-12-18T12:09:18.051Z,5.80
2018-12-18T12:10:18.043Z,5.80
2018-12-18T12:11:18.049Z,6.20
2018-12-18T12:12:18.033Z,5.80
2018-12-18T12:13:18.008Z,6.10
2018-12-18T12:14:18.011Z,6.10
2018-12-18T12:15:17.989Z,6.10
2018-12-18T12:16:17.987Z,5.90
2018-12-18T12:17:18.074Z,5.80
2018-12-18T12:18:17.960Z,5.10
2018-12-18T12:19:17.948Z,5.50
2018-12-18T12:20:17.931Z,5.20
2018-12-18T12:21:17.931Z,5.30
2018-12-18T12:22:17.905Z,5.10
2018-12-18T12:23:18.981Z,5.30
2018-12-18T12:24:17.885Z,5.10
2018-12-18T12:25:17.881Z,5.10
2018-12-18T12:26:18.421Z,5.30
2018-12-18T12:27:17.858Z,5.30
2018-12-18T12:28:17.840Z,4.90
2018-12-18T12:29:17.829Z,5.50
2018-12-18T12:30:17.834Z,5.00
2018-12-18T12:31:17.839Z,4.90
2018-12-18T12:32:17.830Z,5.30
2018-12-18T12:33:17.786Z,4.60
2018-12-18T12:34:17.775Z,5.00
2018-12-18T12:35:17.785Z,5.20
2018-12-18T12:36:17.825Z,5.10
2018-12-18T12:37:17.762Z,5.40
2018-12-18T12:38:17.769Z,4.80
2018-12-18T12:39:17.721Z,4.80
2018-12-18T12:40:17.708Z,4.60
2018-12-18T12:41:17.715Z,5.30
2018-12-18T12:42:17.686Z,4.10
2018-12-18T12:43:17.679Z,4.60
2018-12-18T12:44:17.662Z,4.20
2018-12-18T12:45:17.650Z,4.50
2018-12-18T12:46:17.655Z,4.50
2018-12-18T12:47:17.633Z,4.50
2018-12-18T12:48:17.626Z,4.20
2018-12-18T12:49:17.609Z,4.90
2018-12-18T12:50:17.595Z,4.40
2018-12-18T12:51:17.596Z,4.30
2018-12-18T12:52:17.578Z,4.30
2018-12-18T12:53:17.562Z,4.10
2018-12-18T12:54:17.551Z,4.30
2018-12-18T12:55:17.541Z,4.40
2018-12-18T12:56:17.577Z,3.90
2018-12-18T12:57:17.518Z,3.80
2018-12-18T12:58:17.523Z,4.20
2018-12-18T12:59:17.497Z,4.00